Time;durP1;ratioP1;P1;durP2;ratioP2;P2;SDS_P1;SDS_P2;PMS_P1;PMS_P2;Temp;Humidity;BMP_temperature;BMP_pressure;BME280_temperature;BME280_humidity;BME280_pressure;Samples;Min_cycle;Max_cycle;Signal;HPM_P1;HPM_P2
2024/01/08 00:02:03;;;;;;;13.45;7.97;;;-1.70;77.00;;;;;;5032688;28;20033;-76
2024/01/08 00:04:32;;;;;;;11.77;8.15;;;-1.60;77.50;;;;;;5033705;28;20026;-75
2024/01/08 00:06:57;;;;;;;11.50;7.57;;;-1.60;77.90;;;;;;5032227;28;20021;-75
2024/01/08 00:09:23;;;;;;;13.13;7.63;;;-1.60;78.00;;;;;;5015973;28;20037;-76
2024/01/08 00:11:48;;;;;;;12.23;8.27;;;-1.50;77.90;;;;;;5032146;28;20060;-77
2024/01/08 00:14:14;;;;;;;39.80;17.30;;;-1.60;77.70;;;;;;5032380;28;20051;-77
2024/01/08 00:16:40;;;;;;;31.00;14.20;;;-1.50;78.40;;;;;;5033534;28;20022;-77
2024/01/08 00:19:06;;;;;;;15.05;8.18;;;-1.50;78.60;;;;;;5015542;28;20029;-76
2024/01/08 00:21:33;;;;;;;13.75;7.35;;;-1.40;77.90;;;;;;5032262;28;20038;-76
2024/01/08 00:23:59;;;;;;;32.25;13.93;;;-1.60;76.80;;;;;;5031788;28;20021;-77
2024/01/08 00:26:24;;;;;;;11.93;7.05;;;-1.60;77.70;;;;;;5031778;28;20028;-76
2024/01/08 00:28:50;;;;;;;10.80;7.30;;;-1.70;78.30;;;;;;5031789;28;20037;-77
2024/01/08 00:31:17;;;;;;;32.92;12.88;;;-1.80;77.80;;;;;;5031904;28;20033;-76
2024/01/08 00:33:42;;;;;;;13.95;6.40;;;-1.80;78.20;;;;;;5015199;28;20588;-75
2024/01/08 00:36:08;;;;;;;13.32;8.30;;;-1.90;77.90;;;;;;5031507;28;20116;-75
2024/01/08 00:38:34;;;;;;;21.73;9.98;;;-1.80;78.10;;;;;;5030710;28;20110;-75
2024/01/08 00:41:00;;;;;;;11.55;7.55;;;-1.80;78.10;;;;;;5031919;28;20037;-75
2024/01/08 00:43:26;;;;;;;9.98;7.28;;;-1.80;77.70;;;;;;5033076;28;20539;-76
2024/01/08 00:45:52;;;;;;;13.18;7.00;;;-1.80;77.80;;;;;;5031997;28;20108;-76
2024/01/08 00:48:17;;;;;;;11.32;7.90;;;-1.80;78.40;;;;;;5031704;28;20021;-76
2024/01/08 00:50:43;;;;;;;11.95;7.72;;;-1.70;78.70;;;;;;5031479;28;20022;-77
2024/01/08 00:53:09;;;;;;;9.13;6.13;;;-1.60;78.10;;;;;;5032818;28;20029;-76
2024/01/08 00:55:34;;;;;;;10.70;6.50;;;-1.70;77.70;;;;;;5031909;28;20533;-74
2024/01/08 00:58:00;;;;;;;12.25;7.55;;;-1.90;77.70;;;;;;5031733;28;20112;-76
2024/01/08 01:00:26;;;;;;;12.10;7.38;;;-1.90;78.40;;;;;;5031642;28;20033;-76
2024/01/08 01:02:51;;;;;;;11.48;7.20;;;-1.80;79.00;;;;;;5031692;28;20024;-76
2024/01/08 01:05:17;;;;;;;11.65;7.57;;;-1.90;78.50;;;;;;5031601;28;20025;-74
2024/01/08 01:07:43;;;;;;;10.55;6.78;;;-2.00;78.80;;;;;;5031431;28;20083;-74
2024/01/08 01:10:08;;;;;;;13.32;7.53;;;-2.10;79.10;;;;;;5031268;28;20033;-76
2024/01/08 01:12:34;;;;;;;12.60;7.95;;;-2.00;79.40;;;;;;5030723;28;20022;-76
2024/01/08 01:14:59;;;;;;;14.23;7.68;;;-1.90;79.50;;;;;;5031657;28;20064;-74
2024/01/08 01:17:25;;;;;;;10.15;7.43;;;-1.80;80.10;;;;;;5031511;28;20022;-75
2024/01/08 01:19:50;;;;;;;12.23;7.63;;;-1.80;78.20;;;;;;5031369;28;20444;-74
2024/01/08 01:22:16;;;;;;;11.50;8.13;;;-1.80;79.00;;;;;;5031317;28;20045;-77
2024/01/08 01:24:42;;;;;;;10.45;7.00;;;-1.70;78.40;;;;;;5031492;28;20021;-74
2024/01/08 01:27:07;;;;;;;15.27;7.68;;;-1.70;78.10;;;;;;5031509;28;20021;-75
2024/01/08 01:29:35;;;;;;;10.70;7.53;;;-1.60;77.90;;;;;;5030959;28;20045;-77
2024/01/08 01:32:00;;;;;;;10.43;6.88;;;-1.60;77.60;;;;;;5015304;28;20060;-75
2024/01/08 01:34:27;;;;;;;10.77;7.47;;;-1.70;77.90;;;;;;5031083;28;20540;-75
2024/01/08 01:36:53;;;;;;;10.27;6.97;;;-1.70;78.20;;;;;;5031475;28;20036;-76
2024/01/08 01:39:19;;;;;;;10.75;7.15;;;-1.80;77.80;;;;;;5031115;28;20029;-75
2024/01/08 01:41:46;;;;;;;10.32;7.03;;;-1.80;78.10;;;;;;5031072;28;20508;-75
2024/01/08 01:44:11;;;;;;;9.75;6.35;;;-2.00;77.80;;;;;;5014927;28;20033;-75
2024/01/08 01:46:45;;;;;;;9.73;6.40;;;-2.00;78.40;;;;;;5031230;28;20021;-75
2024/01/08 01:49:17;;;;;;;10.52;6.53;;;-2.10;78.90;;;;;;5032675;28;20034;-75
2024/01/08 01:51:45;;;;;;;14.85;6.75;;;-2.00;79.30;;;;;;5018467;28;20036;-75
2024/01/08 01:54:16;;;;;;;9.10;6.35;;;-2.00;79.10;;;;;;5035051;28;20022;-75
2024/01/08 01:56:44;;;;;;;10.20;6.30;;;-1.90;78.80;;;;;;5034769;28;20372;-75
2024/01/08 01:59:10;;;;;;;8.43;5.20;;;-2.00;78.50;;;;;;5034684;28;20030;-75
2024/01/08 02:01:36;;;;;;;9.48;5.80;;;-1.90;78.20;;;;;;5034944;28;20116;-75
2024/01/08 02:04:03;;;;;;;7.38;5.43;;;-2.00;78.10;;;;;;5001741;28;20112;-75
2024/01/08 02:06:29;;;;;;;9.30;5.30;;;-1.90;77.50;;;;;;5034663;28;20159;-74
2024/01/08 02:08:55;;;;;;;9.07;5.90;;;-1.90;77.40;;;;;;5034771;28;20425;-76
2024/01/08 02:11:21;;;;;;;8.48;5.53;;;-2.00;76.80;;;;;;5018422;28;20065;-76
2024/01/08 02:13:48;;;;;;;8.32;5.65;;;-2.00;76.90;;;;;;5034830;28;20473;-76
2024/01/08 02:16:14;;;;;;;8.52;5.20;;;-2.00;76.60;;;;;;5034775;28;20029;-76
2024/01/08 02:18:40;;;;;;;8.75;5.10;;;-2.00;76.70;;;;;;5034648;28;20032;-76
2024/01/08 02:21:06;;;;;;;6.70;4.72;;;-2.00;76.40;;;;;;5034362;28;20038;-77
2024/01/08 02:23:33;;;;;;;8.05;5.10;;;-1.90;76.20;;;;;;5034322;28;20029;-77
2024/01/08 02:25:59;;;;;;;7.13;5.30;;;-2.00;76.00;;;;;;5034203;28;20074;-76
2024/01/08 02:28:25;;;;;;;7.53;5.00;;;-2.00;75.70;;;;;;5034484;28;20045;-76
2024/01/08 02:30:51;;;;;;;6.40;4.50;;;-1.90;76.20;;;;;;5034415;28;20940;-76
2024/01/08 02:33:16;;;;;;;8.48;4.93;;;-1.90;75.40;;;;;;5034289;28;20068;-76
2024/01/08 02:35:42;;;;;;;9.60;5.00;;;-1.90;74.50;;;;;;5017733;28;20036;-76
2024/01/08 02:38:07;;;;;;;6.57;4.55;;;-1.90;73.80;;;;;;5034166;28;20564;-76
2024/01/08 02:40:34;;;;;;;6.45;4.30;;;-1.90;73.90;;;;;;5034002;28;20036;-76
2024/01/08 02:43:00;;;;;;;5.90;4.22;;;-1.80;74.00;;;;;;5033707;28;20472;-76
2024/01/08 02:45:26;;;;;;;5.97;4.30;;;-1.80;72.70;;;;;;5033828;28;20034;-77
2024/01/08 02:47:51;;;;;;;6.75;4.88;;;-1.80;72.80;;;;;;5033723;28;20030;-76
2024/01/08 02:50:17;;;;;;;6.47;4.10;;;-1.70;73.40;;;;;;5033989;28;20022;-76
2024/01/08 02:52:44;;;;;;;8.52;4.75;;;-1.80;72.40;;;;;;5033977;28;20057;-76
2024/01/08 02:55:10;;;;;;;9.77;3.88;;;-1.80;71.20;;;;;;5035129;28;20163;-76
2024/01/08 02:57:36;;;;;;;5.70;4.10;;;-1.80;70.90;;;;;;5033970;28;20441;-78
2024/01/08 03:00:04;;;;;;;6.05;4.53;;;-1.80;71.70;;;;;;5033423;28;20116;-78
2024/01/08 03:02:30;;;;;;;5.30;4.15;;;-1.80;72.00;;;;;;5033442;28;20116;-78
2024/01/08 03:04:55;;;;;;;5.97;3.88;;;-1.70;72.20;;;;;;5033730;28;20451;-78
2024/01/08 03:07:21;;;;;;;6.78;4.05;;;-1.60;72.10;;;;;;5033368;28;20556;-78
2024/01/08 03:09:47;;;;;;;5.95;4.00;;;-1.60;71.10;;;;;;5033323;28;20025;-78
2024/01/08 03:12:13;;;;;;;7.47;4.20;;;-1.60;72.20;;;;;;5033659;28;20044;-78
2024/01/08 03:14:39;;;;;;;5.07;3.72;;;-1.50;71.60;;;;;;5033498;28;20084;-76
2024/01/08 03:17:05;;;;;;;4.45;3.22;;;-1.50;71.80;;;;;;5033522;28;20030;-76
2024/01/08 03:19:31;;;;;;;6.47;4.35;;;-1.50;70.80;;;;;;5033150;28;20116;-75
2024/01/08 03:21:59;;;;;;;4.57;3.53;;;-1.60;70.60;;;;;;5033483;28;20025;-76
2024/01/08 03:24:24;;;;;;;7.07;4.45;;;-1.50;70.90;;;;;;5033066;28;20021;-76
2024/01/08 03:26:50;;;;;;;4.85;3.33;;;-1.50;71.20;;;;;;5016613;28;20367;-77
2024/01/08 03:29:16;;;;;;;6.75;3.80;;;-1.50;71.30;;;;;;5033162;28;20056;-76
2024/01/08 03:31:42;;;;;;;7.25;4.07;;;-1.50;70.90;;;;;;5033471;28;20116;-76
2024/01/08 03:34:08;;;;;;;3.95;3.08;;;-1.50;70.80;;;;;;5034721;28;20052;-76
2024/01/08 03:36:34;;;;;;;5.38;3.58;;;-1.50;70.20;;;;;;5033349;28;20038;-76
2024/01/08 03:39:00;;;;;;;5.97;3.72;;;-1.40;69.80;;;;;;5033279;28;20049;-76
2024/01/08 03:41:26;;;;;;;6.63;4.25;;;-1.50;69.80;;;;;;5033277;28;20067;-76
2024/01/08 03:43:51;;;;;;;5.18;3.85;;;-1.40;69.80;;;;;;5033283;28;20458;-76
2024/01/08 03:46:17;;;;;;;5.32;4.53;;;-1.50;69.70;;;;;;5016460;28;20038;-76
2024/01/08 03:48:42;;;;;;;5.97;4.10;;;-1.50;69.30;;;;;;5032648;28;20075;-76
2024/01/08 03:51:08;;;;;;;4.75;3.50;;;-1.50;69.70;;;;;;5032700;28;20367;-76
2024/01/08 03:53:33;;;;;;;4.47;3.60;;;-1.50;69.60;;;;;;5032915;28;20112;-76
2024/01/08 03:55:59;;;;;;;5.72;4.00;;;-1.50;69.20;;;;;;5032925;28;20021;-77
2024/01/08 03:58:26;;;;;;;5.95;3.78;;;-1.50;69.30;;;;;;5032740;28;20117;-76
2024/01/08 04:00:53;;;;;;;5.38;3.85;;;-1.50;68.80;;;;;;5016214;28;20049;-76
2024/01/08 04:03:19;;;;;;;7.18;3.80;;;-1.60;68.80;;;;;;5032652;28;20035;-77
2024/01/08 04:05:46;;;;;;;4.32;3.67;;;-1.50;69.20;;;;;;5032583;28;20487;-77
2024/01/08 04:08:11;;;;;;;6.32;4.60;;;-1.60;69.00;;;;;;5032629;28;20040;-77
2024/01/08 04:10:37;;;;;;;5.32;4.05;;;-1.60;69.40;;;;;;5032319;28;20415;-76
2024/01/08 04:13:04;;;;;;;5.88;3.95;;;-1.50;69.30;;;;;;5033785;28;20029;-76
2024/01/08 04:15:30;;;;;;;5.85;4.00;;;-1.50;69.60;;;;;;5032167;28;20168;-76
2024/01/08 04:17:55;;;;;;;5.65;3.95;;;-1.50;69.30;;;;;;5032428;28;20029;-77
2024/01/08 04:20:23;;;;;;;5.07;4.05;;;-1.60;68.90;;;;;;5032309;28;20030;-77
2024/01/08 04:22:50;;;;;;;5.32;4.05;;;-1.60;68.90;;;;;;5032433;28;20021;-76
2024/01/08 04:25:16;;;;;;;5.55;3.83;;;-1.50;69.00;;;;;;5032435;28;20022;-76
2024/01/08 04:27:43;;;;;;;6.00;4.25;;;-1.50;68.80;;;;;;5032314;28;20021;-77
2024/01/08 04:30:09;;;;;;;5.05;3.60;;;-1.50;68.80;;;;;;5031919;28;20136;-77
2024/01/08 04:32:35;;;;;;;6.72;4.07;;;-1.50;68.80;;;;;;5031985;28;20049;-77
2024/01/08 04:35:01;;;;;;;6.90;3.95;;;-1.50;68.70;;;;;;5032157;28;20029;-77
2024/01/08 04:37:27;;;;;;;5.40;3.65;;;-1.50;68.40;;;;;;5032211;28;20408;-77
2024/01/08 04:39:53;;;;;;;5.18;3.42;;;-1.50;68.50;;;;;;5031983;28;20033;-77
2024/01/08 04:42:20;;;;;;;4.22;3.28;;;-1.50;68.00;;;;;;5031369;28;20072;-76
2024/01/08 04:44:46;;;;;;;4.75;3.55;;;-1.40;68.10;;;;;;5031864;28;20029;-77
2024/01/08 04:47:12;;;;;;;4.63;3.85;;;-1.50;68.00;;;;;;5031921;28;20057;-76
2024/01/08 04:49:37;;;;;;;8.65;4.95;;;-1.40;68.10;;;;;;5031663;28;20056;-74
2024/01/08 04:52:03;;;;;;;11.68;6.53;;;-1.40;68.10;;;;;;5031717;28;20388;-75
2024/01/08 04:54:29;;;;;;;14.25;7.95;;;-1.40;68.20;;;;;;5032027;28;20131;-75
2024/01/08 04:56:55;;;;;;;9.75;6.30;;;-1.40;67.80;;;;;;5031888;28;20189;-77
2024/01/08 04:59:22;;;;;;;7.63;5.03;;;-1.30;67.80;;;;;;5031422;28;20167;-77
2024/01/08 05:01:49;;;;;;;7.10;5.15;;;-1.30;67.90;;;;;;5031738;28;20030;-76
2024/01/08 05:04:15;;;;;;;7.47;4.85;;;-1.30;68.00;;;;;;5031602;28;20052;-76
2024/01/08 05:06:42;;;;;;;7.50;4.60;;;-1.30;67.30;;;;;;5031773;28;20044;-76
2024/01/08 05:09:08;;;;;;;7.95;4.13;;;-1.30;67.50;;;;;;5032798;28;20018;-76
2024/01/08 05:11:35;;;;;;;6.57;4.35;;;-1.20;67.60;;;;;;5031865;28;20053;-77
2024/01/08 05:14:04;;;;;;;7.32;4.22;;;-1.30;67.20;;;;;;5031680;28;20064;-77
2024/01/08 05:16:29;;;;;;;5.97;4.40;;;-1.30;67.40;;;;;;5031724;28;20049;-77
2024/01/08 05:18:55;;;;;;;4.88;4.13;;;-1.20;67.50;;;;;;5031848;28;20068;-76
2024/01/08 05:21:20;;;;;;;5.88;3.97;;;-1.20;67.20;;;;;;5031342;28;20452;-76
2024/01/08 05:23:46;;;;;;;6.05;3.72;;;-1.20;66.60;;;;;;5032255;28;20025;-76
2024/01/08 05:26:12;;;;;;;5.45;4.28;;;-1.20;66.30;;;;;;5035638;28;20037;-76
2024/01/08 05:28:37;;;;;;;9.00;4.32;;;-1.20;66.20;;;;;;5034814;28;20390;-76
2024/01/08 05:31:03;;;;;;;5.55;3.95;;;-1.20;66.30;;;;;;5035673;28;20033;-77
2024/01/08 05:33:30;;;;;;;5.32;4.25;;;-1.20;66.40;;;;;;5035122;28;20099;-77
2024/01/08 05:35:56;;;;;;;7.38;3.78;;;-1.30;65.60;;;;;;5035311;28;20030;-77
2024/01/08 05:38:22;;;;;;;4.93;3.65;;;-1.30;65.70;;;;;;5035073;28;20398;-77
2024/01/08 05:40:49;;;;;;;5.78;4.00;;;-1.20;65.60;;;;;;5035457;28;20371;-77
2024/01/08 05:43:17;;;;;;;5.93;4.35;;;-1.30;65.50;;;;;;5042327;28;20025;-78
2024/01/08 05:45:42;;;;;;;7.13;4.50;;;-1.40;66.20;;;;;;5018611;28;20040;-78
2024/01/08 05:48:09;;;;;;;8.48;5.03;;;-1.30;66.90;;;;;;5034758;28;20026;-77
2024/01/08 05:50:35;;;;;;;7.95;5.20;;;-1.30;67.00;;;;;;5051796;28;20030;-77
2024/01/08 05:53:00;;;;;;;5.55;3.72;;;-1.30;67.00;;;;;;5051333;28;20072;-77
2024/01/08 05:55:26;;;;;;;5.00;3.97;;;-1.30;66.00;;;;;;5051398;28;20040;-78
2024/01/08 05:57:52;;;;;;;4.97;3.88;;;-1.40;65.00;;;;;;5018427;28;20471;-77
2024/01/08 06:00:20;;;;;;;5.80;4.07;;;-1.50;65.30;;;;;;5036360;28;20034;-77
2024/01/08 06:02:46;;;;;;;5.72;3.90;;;-1.50;65.80;;;;;;5051425;28;20067;-77
2024/01/08 06:05:11;;;;;;;5.28;3.65;;;-1.60;66.20;;;;;;5051627;28;20105;-78
2024/01/08 06:07:37;;;;;;;5.82;3.75;;;-1.50;66.30;;;;;;5051157;28;20037;-77
2024/01/08 06:10:03;;;;;;;6.95;4.63;;;-1.50;66.50;;;;;;5051290;28;20097;-77
2024/01/08 06:12:30;;;;;;;7.03;4.72;;;-1.50;66.70;;;;;;5051382;28;20120;-76
2024/01/08 06:14:55;;;;;;;6.80;4.43;;;-1.40;66.60;;;;;;5051525;28;20107;-77
2024/01/08 06:17:21;;;;;;;6.78;4.82;;;-1.40;66.20;;;;;;5051516;28;20033;-77
2024/01/08 06:19:48;;;;;;;8.65;4.78;;;-1.40;66.40;;;;;;5051134;28;20029;-76
2024/01/08 06:22:14;;;;;;;6.25;4.22;;;-1.40;66.40;;;;;;5051265;28;20028;-77
2024/01/08 06:24:40;;;;;;;7.57;4.07;;;-1.40;66.20;;;;;;5050931;28;20068;-77
2024/01/08 06:27:06;;;;;;;7.25;4.88;;;-1.40;65.70;;;;;;5051055;28;20486;-77
2024/01/08 06:29:32;;;;;;;11.52;6.25;;;-1.40;65.70;;;;;;5035119;28;20053;-77
2024/01/08 06:31:59;;;;;;;8.18;5.05;;;-1.50;66.30;;;;;;5051125;28;20022;-76
2024/01/08 06:34:25;;;;;;;6.30;4.47;;;-1.50;66.20;;;;;;5034854;28;20029;-77
2024/01/08 06:36:50;;;;;;;7.07;4.78;;;-1.50;66.40;;;;;;5049299;28;20017;-78
2024/01/08 06:39:16;;;;;;;6.32;4.57;;;-1.50;66.30;;;;;;5050455;28;20029;-77
2024/01/08 06:41:42;;;;;;;4.95;3.45;;;-1.60;65.90;;;;;;5050585;28;20448;-77
2024/01/08 06:44:08;;;;;;;5.78;3.50;;;-1.50;65.40;;;;;;5035234;28;20079;-80
2024/01/08 06:46:34;;;;;;;7.93;4.22;;;-1.60;65.20;;;;;;5050414;28;20026;-78
2024/01/08 06:48:59;;;;;;;7.07;4.63;;;-1.60;65.50;;;;;;5050370;28;20041;-77
2024/01/08 06:51:25;;;;;;;8.88;5.55;;;-1.20;79.40;;;;;;5034857;28;20029;-78
2024/01/08 06:53:51;;;;;;;6.50;4.25;;;-0.40;85.70;;;;;;5050754;28;20132;-78
2024/01/08 06:56:16;;;;;;;3.75;2.70;;;0.40;76.60;;;;;;5034937;28;20021;-78
2024/01/08 06:58:42;;;;;;;4.07;3.45;;;1.40;66.70;;;;;;5033551;28;20363;-77
2024/01/08 07:01:07;;;;;;;4.72;3.30;;;1.50;56.70;;;;;;5050381;28;20393;-76
2024/01/08 07:03:34;;;;;;;4.28;3.25;;;1.20;55.80;;;;;;5050432;28;20107;-77
2024/01/08 07:06:02;;;;;;;5.00;3.15;;;0.70;56.20;;;;;;5050191;28;20091;-74
2024/01/08 07:08:27;;;;;;;5.25;3.40;;;0.30;57.00;;;;;;5035424;28;20109;-76
2024/01/08 07:10:53;;;;;;;6.60;3.45;;;0.00;58.30;;;;;;5050810;28;20052;-76
2024/01/08 07:13:22;;;;;;;3.92;2.97;;;-0.30;59.70;;;;;;5049778;28;20029;-77
2024/01/08 07:15:48;;;;;;;5.20;3.50;;;-0.50;60.50;;;;;;5033863;28;20030;-77
2024/01/08 07:18:15;;;;;;;5.65;3.63;;;-0.80;60.60;;;;;;5049850;28;20017;-77
2024/01/08 07:20:41;;;;;;;4.35;3.55;;;-0.90;61.40;;;;;;5049916;28;20080;-78
2024/01/08 07:23:11;;;;;;;4.55;3.70;;;-1.00;62.30;;;;;;5049738;28;20025;-77
2024/01/08 07:25:38;;;;;;;6.40;4.47;;;-1.10;63.20;;;;;;5049652;28;20022;-76
2024/01/08 07:28:11;;;;;;;7.18;4.45;;;-1.10;63.40;;;;;;5049962;28;20141;-76
2024/01/08 07:30:38;;;;;;;5.25;3.70;;;-1.10;63.60;;;;;;5034395;28;20052;-77
2024/01/08 07:33:04;;;;;;;5.65;3.20;;;-1.30;62.70;;;;;;5049911;28;20113;-76
2024/01/08 07:35:29;;;;;;;6.43;3.95;;;-1.30;62.90;;;;;;5049613;28;20063;-76
2024/01/08 07:37:55;;;;;;;5.28;3.90;;;-1.40;63.40;;;;;;5049579;28;20047;-77
2024/01/08 07:40:25;;;;;;;5.40;3.85;;;-1.30;63.80;;;;;;5034083;28;20044;-77
2024/01/08 07:42:55;;;;;;;6.85;3.97;;;-1.30;63.40;;;;;;5049772;28;20022;-77
2024/01/08 07:45:26;;;;;;;6.80;5.05;;;-1.40;63.10;;;;;;5049587;28;20025;-76
2024/01/08 07:47:52;;;;;;;5.88;3.67;;;-1.40;64.00;;;;;;5049320;28;20036;-77
2024/01/08 07:50:19;;;;;;;5.53;3.40;;;-1.40;64.30;;;;;;5049622;28;20029;-76
2024/01/08 07:52:44;;;;;;;5.93;3.92;;;-1.40;63.80;;;;;;5049591;28;20044;-75
2024/01/08 07:55:10;;;;;;;5.95;3.78;;;-1.50;64.00;;;;;;5049597;28;20474;-77
2024/01/08 07:57:36;;;;;;;6.28;3.88;;;-1.50;64.20;;;;;;5049210;28;20402;-76
2024/01/08 08:00:11;;;;;;;5.07;3.67;;;-1.50;64.10;;;;;;5033703;28;20113;-76
2024/01/08 08:02:37;;;;;;;6.18;3.72;;;-1.40;63.90;;;;;;5049539;28;20056;-78
2024/01/08 08:05:03;;;;;;;4.50;3.60;;;-1.50;63.80;;;;;;5049252;28;20458;-76
2024/01/08 08:07:28;;;;;;;4.90;3.38;;;-1.50;63.80;;;;;;5049380;28;20035;-76
2024/01/08 08:09:55;;;;;;;6.55;3.70;;;-1.40;64.10;;;;;;5049389;28;20120;-76
2024/01/08 08:12:20;;;;;;;6.53;3.42;;;-1.40;63.90;;;;;;5049307;28;20025;-77
2024/01/08 08:14:48;;;;;;;7.65;4.90;;;-1.40;63.50;;;;;;5049044;28;20047;-77
2024/01/08 08:17:14;;;;;;;7.72;4.45;;;-1.40;63.90;;;;;;5049003;28;20075;-77
2024/01/08 08:19:44;;;;;;;6.47;3.63;;;-1.40;64.00;;;;;;5049100;28;20356;-77
2024/01/08 08:22:11;;;;;;;3.95;3.10;;;-1.30;64.10;;;;;;5033798;28;20475;-76
2024/01/08 08:24:38;;;;;;;6.28;3.90;;;-1.30;64.30;;;;;;5048707;28;20021;-76
2024/01/08 08:27:04;;;;;;;8.57;4.82;;;-1.20;64.60;;;;;;5048967;28;20025;-75
2024/01/08 08:29:32;;;;;;;11.52;5.80;;;-1.20;64.60;;;;;;5033086;28;20045;-77
2024/01/08 08:31:57;;;;;;;8.63;4.63;;;-1.10;64.00;;;;;;5048916;28;20449;-76
2024/01/08 08:34:23;;;;;;;7.30;4.60;;;-1.10;63.60;;;;;;5048801;28;20112;-76
2024/01/08 08:36:48;;;;;;;8.30;3.97;;;-1.20;63.70;;;;;;5033042;28;20463;-75
2024/01/08 08:39:15;;;;;;;6.18;4.13;;;-1.10;63.80;;;;;;5032948;28;20033;-75
2024/01/08 08:41:42;;;;;;;7.18;4.78;;;-1.00;64.00;;;;;;5032887;28;20083;-75
2024/01/08 08:44:08;;;;;;;7.22;4.13;;;-1.00;63.40;;;;;;5048525;28;20075;-75
2024/01/08 08:46:34;;;;;;;5.53;4.20;;;-0.90;63.10;;;;;;5048064;28;20392;-75
2024/01/08 08:49:01;;;;;;;5.47;4.03;;;-0.90;62.50;;;;;;5032850;28;20032;-75
2024/01/08 08:51:26;;;;;;;5.32;3.70;;;-0.90;62.80;;;;;;5048234;28;20026;-76
2024/01/08 08:53:52;;;;;;;5.88;4.00;;;-0.90;63.20;;;;;;5015061;28;20036;-76
2024/01/08 08:56:18;;;;;;;6.03;4.05;;;-0.90;63.80;;;;;;5047935;28;20028;-75
2024/01/08 08:58:43;;;;;;;6.15;4.05;;;-0.90;62.60;;;;;;5047452;28;20028;-75
2024/01/08 09:01:11;;;;;;;6.25;3.78;;;-0.80;62.30;;;;;;5048188;28;20048;-75
2024/01/08 09:03:38;;;;;;;4.90;3.47;;;-0.80;62.70;;;;;;5048085;28;20018;-74
2024/01/08 09:06:04;;;;;;;7.95;3.80;;;-0.80;63.00;;;;;;5047537;28;20533;-74
2024/01/08 09:08:29;;;;;;;6.25;4.18;;;-0.70;62.60;;;;;;5032896;28;20097;-74
2024/01/08 09:10:55;;;;;;;5.10;4.05;;;-0.80;62.10;;;;;;5048171;28;20026;-75
2024/01/08 09:13:20;;;;;;;7.13;5.03;;;-0.90;62.40;;;;;;5048160;28;20091;-75
2024/01/08 09:15:49;;;;;;;6.30;4.28;;;-0.80;63.80;;;;;;5048146;28;20030;-75
2024/01/08 09:18:15;;;;;;;6.95;4.53;;;-0.70;62.50;;;;;;5047525;28;20021;-75
2024/01/08 09:20:40;;;;;;;7.03;4.75;;;-0.70;62.40;;;;;;5048004;28;20499;-74
2024/01/08 09:23:06;;;;;;;6.18;4.45;;;-0.80;62.90;;;;;;5048053;28;20025;-74
2024/01/08 09:25:31;;;;;;;9.27;4.57;;;-0.80;63.20;;;;;;5047479;28;20029;-74
2024/01/08 09:27:57;;;;;;;6.75;4.30;;;-0.70;63.00;;;;;;5048163;28;20474;-74
2024/01/08 09:30:23;;;;;;;7.18;4.75;;;-0.70;63.30;;;;;;5047762;28;20077;-74
2024/01/08 09:32:49;;;;;;;7.70;4.63;;;-0.70;63.20;;;;;;5047834;28;20018;-74
2024/01/08 09:35:14;;;;;;;6.95;4.10;;;-0.70;63.00;;;;;;5047973;28;20029;-74
2024/01/08 09:37:40;;;;;;;7.53;4.45;;;-0.70;63.20;;;;;;5047903;28;20045;-74
2024/01/08 09:40:06;;;;;;;5.72;3.63;;;-0.70;62.80;;;;;;5047978;28;20026;-75
2024/01/08 09:42:33;;;;;;;10.20;5.30;;;-0.70;62.80;;;;;;5047488;28;20087;-76
2024/01/08 09:45:03;;;;;;;5.68;3.88;;;-0.70;62.90;;;;;;5047709;28;20462;-76
2024/01/08 09:47:30;;;;;;;7.95;4.18;;;-0.60;62.70;;;;;;5047590;28;20036;-76
2024/01/08 09:49:57;;;;;;;8.10;4.88;;;-0.70;62.60;;;;;;5047450;28;20478;-76
2024/01/08 09:52:23;;;;;;;7.82;4.53;;;-0.70;62.90;;;;;;5047878;28;20087;-76
2024/01/08 09:54:49;;;;;;;8.02;4.38;;;-0.60;63.20;;;;;;5047641;28;20435;-76
2024/01/08 09:57:15;;;;;;;9.13;4.78;;;-0.60;62.90;;;;;;5048057;28;20034;-74
2024/01/08 09:59:42;;;;;;;7.97;4.45;;;-0.60;63.00;;;;;;5047321;28;20030;-77
2024/01/08 10:02:15;;;;;;;9.05;4.70;;;-0.50;63.20;;;;;;5029552;28;20045;-77
2024/01/08 10:04:41;;;;;;;8.30;4.70;;;-0.50;63.00;;;;;;5011534;28;20026;-77
2024/01/08 10:07:12;;;;;;;8.95;5.10;;;-0.50;62.90;;;;;;5011279;28;20033;-76
2024/01/08 10:09:37;;;;;;;9.10;5.50;;;-0.50;63.00;;;;;;5011685;28;20371;-77
2024/01/08 10:12:07;;;;;;;8.82;5.18;;;-0.60;62.90;;;;;;5015173;28;20029;-77
2024/01/08 10:14:34;;;;;;;8.85;5.18;;;-0.60;62.90;;;;;;5014728;28;20022;-77
2024/01/08 10:17:02;;;;;;;7.05;5.20;;;-0.70;63.30;;;;;;5014973;28;20025;-77
2024/01/08 10:19:28;;;;;;;8.25;5.25;;;-0.60;63.50;;;;;;5014777;28;20463;-77
2024/01/08 10:22:12;;;;;;;6.75;4.93;;;-0.60;62.70;;;;;;5014656;28;20099;-76
2024/01/08 10:24:43;;;;;;;8.07;4.97;;;-0.60;63.40;;;;;;5014900;28;20052;-76
2024/01/08 10:27:10;;;;;;;7.78;5.03;;;-0.60;62.60;;;;;;5015328;28;20022;-76
2024/01/08 10:29:37;;;;;;;10.10;4.88;;;-0.60;61.70;;;;;;5015065;28;20092;-76
2024/01/08 10:32:04;;;;;;;7.40;5.13;;;-0.60;61.70;;;;;;5015009;28;20046;-77
2024/01/08 10:34:30;;;;;;;10.60;5.63;;;-0.70;62.10;;;;;;5014843;28;20026;-77
2024/01/08 10:36:57;;;;;;;8.23;5.18;;;-0.60;61.80;;;;;;5015738;28;20022;-75
2024/01/08 10:39:24;;;;;;;7.43;4.90;;;-0.60;61.60;;;;;;5014667;28;20026;-75
2024/01/08 10:41:50;;;;;;;9.35;5.93;;;-0.60;61.90;;;;;;5015473;28;20034;-76
2024/01/08 10:44:16;;;;;;;8.20;5.68;;;-0.60;62.80;;;;;;5016854;28;20044;-75
2024/01/08 10:47:15;;;;;;;9.88;5.28;;;-0.60;63.00;;;;;;5015753;28;20482;-76
2024/01/08 10:49:45;;;;;;;10.40;5.20;;;-0.50;63.30;;;;;;5015710;28;20140;-75
2024/01/08 10:52:21;;;;;;;8.00;5.30;;;-0.50;63.10;;;;;;5014124;28;20026;-75
2024/01/08 10:54:58;;;;;;;7.43;4.80;;;-0.60;62.70;;;;;;5014738;28;20107;-76
2024/01/08 10:57:48;;;;;;;8.70;5.13;;;-0.60;62.70;;;;;;5014532;28;20459;-75
2024/01/08 11:00:14;;;;;;;9.20;5.50;;;-0.60;62.50;;;;;;5014221;28;20072;-75
2024/01/08 11:02:42;;;;;;;12.00;6.63;;;-0.60;62.60;;;;;;5014023;28;20033;-77
2024/01/08 11:05:08;;;;;;;10.73;7.22;;;-0.60;64.00;;;;;;5014237;28;20360;-76
2024/01/08 11:07:38;;;;;;;11.27;7.65;;;-0.70;63.90;;;;;;5013873;28;20026;-76
2024/01/08 11:10:06;;;;;;;10.40;7.15;;;-0.70;64.80;;;;;;5013543;28;20022;-76
2024/01/08 11:12:35;;;;;;;12.02;6.95;;;-0.80;65.30;;;;;;5013513;28;20036;-75
2024/01/08 11:15:02;;;;;;;10.00;5.80;;;-0.80;65.10;;;;;;5013955;28;20505;-75
2024/01/08 11:17:28;;;;;;;11.40;7.60;;;-0.70;65.10;;;;;;5013709;28;20030;-76
2024/01/08 11:19:55;;;;;;;10.23;6.32;;;-0.60;64.90;;;;;;5013682;28;20477;-75
2024/01/08 11:22:20;;;;;;;10.00;7.03;;;-0.60;64.60;;;;;;5013865;28;20061;-75
2024/01/08 11:24:49;;;;;;;9.90;5.50;;;-0.60;64.20;;;;;;5014592;28;20033;-75
2024/01/08 11:27:20;;;;;;;10.73;6.57;;;-0.60;64.30;;;;;;5031639;28;20033;-76
2024/01/08 11:29:58;;;;;;;10.48;6.60;;;-0.60;65.00;;;;;;5034001;28;20096;-77
2024/01/08 11:32:51;;;;;;;9.48;6.20;;;-0.60;64.50;;;;;;5034448;28;20025;-77
2024/01/08 11:35:20;;;;;;;10.63;6.18;;;-0.60;64.20;;;;;;5034051;28;20024;-76
2024/01/08 11:38:03;;;;;;;9.43;5.80;;;-0.70;64.00;;;;;;5034116;28;20052;-75
2024/01/08 11:40:29;;;;;;;10.35;5.55;;;-0.90;63.80;;;;;;5033947;28;20040;-76
2024/01/08 11:42:55;;;;;;;10.68;6.78;;;-1.00;64.60;;;;;;5033952;28;20022;-76
2024/01/08 11:45:21;;;;;;;11.18;6.80;;;-1.10;65.40;;;;;;5033951;28;20017;-77
2024/01/08 11:47:47;;;;;;;9.50;6.63;;;-1.10;65.90;;;;;;5033640;28;20453;-76
2024/01/08 11:50:12;;;;;;;9.68;6.72;;;-1.10;65.30;;;;;;5032355;28;20026;-76
2024/01/08 11:52:39;;;;;;;10.18;6.93;;;-1.20;65.60;;;;;;5033208;28;20079;-77
2024/01/08 11:55:09;;;;;;;11.05;7.20;;;-1.20;65.40;;;;;;5032122;28;20021;-77
2024/01/08 11:57:37;;;;;;;10.57;6.63;;;-1.10;65.80;;;;;;5033279;28;20493;-77
2024/01/08 12:00:12;;;;;;;11.85;6.50;;;-1.20;65.20;;;;;;5033362;28;20064;-77
2024/01/08 12:02:39;;;;;;;9.80;6.10;;;-1.20;65.70;;;;;;5033291;28;20025;-75
2024/01/08 12:05:05;;;;;;;11.38;7.10;;;-1.20;65.60;;;;;;5033414;28;20025;-76
2024/01/08 12:07:32;;;;;;;13.13;7.43;;;-1.20;65.60;;;;;;5033538;28;20044;-75
2024/01/08 12:10:04;;;;;;;9.77;6.63;;;-1.40;65.60;;;;;;5033381;28;20029;-77
2024/01/08 12:12:30;;;;;;;12.07;6.72;;;-1.50;66.30;;;;;;5032219;28;20032;-77
2024/01/08 12:14:56;;;;;;;10.02;6.00;;;-1.50;66.50;;;;;;5033329;28;20458;-77
2024/01/08 12:17:22;;;;;;;11.90;7.10;;;-1.60;66.50;;;;;;5033039;28;20039;-77
2024/01/08 12:19:50;;;;;;;10.13;6.93;;;-1.70;66.90;;;;;;5031697;28;20029;-75
2024/01/08 12:22:19;;;;;;;11.15;6.57;;;-1.60;67.20;;;;;;5033114;28;20029;-76
2024/01/08 12:24:47;;;;;;;10.30;6.60;;;-1.60;66.80;;;;;;5033186;28;20101;-76
2024/01/08 12:27:16;;;;;;;11.82;5.95;;;-1.60;66.70;;;;;;5031787;28;20031;-77
2024/01/08 12:29:42;;;;;;;9.10;6.35;;;-1.60;67.20;;;;;;5033053;28;20045;-75
2024/01/08 12:32:10;;;;;;;9.48;5.22;;;-1.60;67.40;;;;;;5033511;28;20029;-75
2024/01/08 12:34:37;;;;;;;11.23;6.45;;;-1.50;67.20;;;;;;5032063;28;20021;-76
2024/01/08 12:37:04;;;;;;;10.77;5.80;;;-1.60;66.70;;;;;;5032886;28;20060;-76
2024/01/08 12:39:30;;;;;;;11.68;6.65;;;-1.60;67.00;;;;;;5032748;28;20056;-75
2024/01/08 12:42:00;;;;;;;11.10;6.72;;;-1.60;66.80;;;;;;5031353;28;20030;-76